createdAt,value
2022-10-19T00:01:09.416Z,99040.63
2022-10-19T00:03:37.263Z,99040.88
2022-10-19T00:06:18.577Z,99034.78
2022-10-19T00:08:45.891Z,99038.19
2022-10-19T00:11:13.144Z,99031.09
2022-10-19T00:13:40.411Z,99029.69
2022-10-19T00:16:13.278Z,99020.16
2022-10-19T00:18:41.700Z,99022.34
2022-10-19T00:21:10.804Z,99015.75
2022-10-19T00:23:38.340Z,99015.75
2022-10-19T00:26:05.695Z,99023.31
2022-10-19T00:28:32.830Z,99020.84
2022-10-19T00:31:05.884Z,99022.06
2022-10-19T00:33:33.422Z,99028.63
2022-10-19T00:36:00.648Z,99020.56
2022-10-19T00:38:27.735Z,99019.31
2022-10-19T00:40:54.848Z,99026.44
2022-10-19T00:43:31.503Z,99024.00
2022-10-19T00:45:58.746Z,99022.53
2022-10-19T00:48:29.529Z,99021.53
2022-10-19T00:50:59.057Z,99017.19
2022-10-19T00:53:31.027Z,99004.50
2022-10-19T00:56:01.249Z,98997.47
2022-10-19T00:58:28.275Z,98995.50
2022-10-19T01:00:55.538Z,98989.41
2022-10-19T01:03:22.590Z,98990.91
2022-10-19T01:05:50.469Z,98986.50
2022-10-19T01:08:17.843Z,98978.22
2022-10-19T01:11:18.219Z,98984.06
2022-10-19T01:13:56.771Z,98985.53
2022-10-19T01:16:35.845Z,98984.59
2022-10-19T01:19:17.358Z,98984.16
2022-10-19T01:22:30.703Z,98993.63
2022-10-19T01:25:07.347Z,98990.94
2022-10-19T01:27:59.990Z,99006.78
2022-10-19T01:31:05.342Z,99002.91
2022-10-19T01:33:46.742Z,99001.19
2022-10-19T01:36:20.060Z,98991.94
2022-10-19T01:38:54.995Z,98994.63
2022-10-19T01:41:42.346Z,99001.44
2022-10-19T01:44:23.230Z,98988.50
2022-10-19T01:46:55.605Z,98984.16
2022-10-19T01:49:29.947Z,98986.03
2022-10-19T01:52:02.199Z,98975.31
2022-10-19T01:54:34.649Z,98981.66
2022-10-19T01:57:04.276Z,98979.44
2022-10-19T01:59:33.441Z,98978.69
2022-10-19T02:02:03.227Z,98985.53
2022-10-19T02:04:31.758Z,98988.19
2022-10-19T02:06:59.644Z,98986.72
2022-10-19T02:09:26.977Z,98982.38
2022-10-19T02:11:58.563Z,98969.97
2022-10-19T02:14:35.241Z,98971.94
2022-10-19T02:17:13.157Z,98970.25
2022-10-19T02:19:40.671Z,98956.38
2022-10-19T02:22:08.436Z,98953.22
2022-10-19T02:24:35.504Z,98949.31
2022-10-19T02:27:05.911Z,98939.59
2022-10-19T02:29:34.747Z,98927.66
2022-10-19T02:32:02.777Z,98915.72
2022-10-19T02:34:30.709Z,98909.63
2022-10-19T02:36:58.074Z,98916.72
2022-10-19T02:39:25.422Z,98901.09
2022-10-19T02:41:52.459Z,98902.81
2022-10-19T02:44:38.048Z,98888.44
2022-10-19T02:47:13.811Z,98890.84
2022-10-19T02:49:43.263Z,98896.47
2022-10-19T02:52:12.699Z,98896.91
2022-10-19T02:54:41.243Z,98913.28
2022-10-19T02:57:28.487Z,98908.88
2022-10-19T02:59:55.560Z,98906.94
2022-10-19T03:02:22.666Z,98906.47
2022-10-19T03:04:49.854Z,98913.78
2022-10-19T03:07:20.519Z,98925.91
2022-10-19T03:09:47.664Z,98928.34
2022-10-19T03:12:14.991Z,98929.09
2022-10-19T03:14:42.471Z,98928.34
2022-10-19T03:17:10.029Z,98930.59
2022-10-19T03:19:37.575Z,98937.09
2022-10-19T03:22:04.832Z,98950.03
2022-10-19T03:24:32.454Z,98948.81
2022-10-19T03:26:59.594Z,98940.78
2022-10-19T03:29:26.702Z,98941.50
2022-10-19T03:31:53.794Z,98943.69
2022-10-19T03:34:20.837Z,98935.94
2022-10-19T03:36:48.168Z,98935.94
2022-10-19T03:39:16.636Z,98937.38
2022-10-19T03:41:44.267Z,98928.13
2022-10-19T03:44:11.801Z,98935.19
2022-10-19T03:46:39.883Z,98927.16
2022-10-19T03:49:07.049Z,98922.53
2022-10-19T03:51:34.541Z,98916.69
2022-10-19T03:54:05.195Z,98913.03
2022-10-19T03:56:33.727Z,98913.53
2022-10-19T03:59:02.371Z,98908.16
2022-10-19T04:01:35.229Z,98904.25
2022-10-19T04:04:04.955Z,98901.34
2022-10-19T04:06:37.430Z,98904.00
2022-10-19T04:09:06.370Z,98904.50
2022-10-19T04:11:34.924Z,98900.34
2022-10-19T04:14:02.483Z,98903.28
2022-10-19T04:16:31.117Z,98897.91
2022-10-19T04:18:58.571Z,98905.69
2022-10-19T04:21:37.467Z,98914.25
2022-10-19T04:24:10.235Z,98908.13
2022-10-19T04:26:48.881Z,98905.47
2022-10-19T04:29:19.434Z,98901.50
2022-10-19T04:31:48.936Z,98898.09
2022-10-19T04:34:16.611Z,98894.44
2022-10-19T04:36:43.766Z,98888.81
2022-10-19T04:39:11.080Z,98891.47
2022-10-19T04:41:38.946Z,98890.75
2022-10-19T04:44:09.231Z,98882.44
2022-10-19T04:46:36.605Z,98882.69
2022-10-19T04:49:05.946Z,98875.38
2022-10-19T04:51:33.094Z,98888.00
2022-10-19T04:54:00.633Z,98882.84
2022-10-19T04:56:28.585Z,98887.22
2022-10-19T04:58:57.800Z,98880.16
2022-10-19T05:01:26.871Z,98872.13
2022-10-19T05:06:24.484Z,98877.06
2022-10-19T05:08:51.924Z,98875.09
2022-10-19T05:11:20.105Z,98880.25
2022-10-19T05:13:48.404Z,98872.94
2022-10-19T05:16:18.422Z,98879.25
2022-10-19T05:18:53.569Z,98869.03
2022-10-19T05:21:22.109Z,98864.59
2022-10-19T05:23:53.178Z,98865.06
2022-10-19T05:26:22.314Z,98861.91
2022-10-19T05:28:58.273Z,98854.13
2022-10-19T05:31:28.174Z,98860.16
2022-10-19T05:33:58.877Z,98864.03
2022-10-19T05:36:37.610Z,98860.41
2022-10-19T05:39:13.150Z,98869.63
2022-10-19T05:41:42.228Z,98862.34
2022-10-19T05:44:14.156Z,98860.66
2022-10-19T05:46:41.322Z,98864.31
2022-10-19T05:49:08.472Z,98858.25
2022-10-19T05:51:35.492Z,98862.66
2022-10-19T05:54:02.600Z,98864.59
2022-10-19T05:56:30.973Z,98865.59
2022-10-19T05:58:59.657Z,98871.94
2022-10-19T06:01:28.506Z,98878.97
2022-10-19T06:03:57.487Z,98868.56
2022-10-19T06:06:25.177Z,98875.59
2022-10-19T06:08:54.403Z,98886.53
2022-10-19T06:11:24.358Z,98888.28
2022-10-19T06:13:54.109Z,98893.38
2022-10-19T06:16:24.309Z,98897.25
2022-10-19T06:18:52.705Z,98891.44
2022-10-19T06:21:22.362Z,98888.97
2022-10-19T06:23:54.046Z,98893.34
2022-10-19T06:26:21.536Z,98896.28
2022-10-19T06:28:50.014Z,98895.78
2022-10-19T06:31:17.652Z,98909.91
2022-10-19T06:33:48.599Z,98906.47
2022-10-19T06:36:23.037Z,98908.41
2022-10-19T06:38:51.713Z,98912.84
2022-10-19T06:41:19.165Z,98898.94
2022-10-19T06:43:50.686Z,98889.00
2022-10-19T06:46:20.840Z,98896.28
2022-10-19T06:48:56.253Z,98889.00
2022-10-19T06:51:25.952Z,98901.16
2022-10-19T06:53:56.657Z,98906.53
2022-10-19T06:56:26.003Z,98901.91
2022-10-19T06:58:53.631Z,98903.09
2022-10-19T07:01:21.341Z,98902.59
2022-10-19T07:03:48.541Z,98904.09
2022-10-19T07:06:15.575Z,98910.91
2022-10-19T07:08:43.376Z,98911.16
2022-10-19T07:11:15.068Z,98922.56
2022-10-19T07:13:42.104Z,98933.28
2022-10-19T07:16:16.003Z,98932.84
2022-10-19T07:18:47.488Z,98930.41
2022-10-19T07:21:17.036Z,98934.28
2022-10-19T07:23:45.891Z,98943.28
2022-10-19T07:26:26.785Z,98944.03
2022-10-19T07:28:56.466Z,98952.56
2022-10-19T07:31:25.239Z,98965.69
2022-10-19T07:33:57.406Z,98962.72
2022-10-19T07:36:25.384Z,98968.81
2022-10-19T07:38:52.832Z,98970.53
2022-10-19T07:41:22.521Z,98975.22
2022-10-19T07:43:50.732Z,98981.81
2022-10-19T07:46:20.501Z,98979.63
2022-10-19T07:48:48.337Z,98986.22
2022-10-19T07:51:17.317Z,98978.66
2022-10-19T07:53:45.255Z,98983.09
2022-10-19T07:56:20.736Z,98978.44
2022-10-19T07:58:49.410Z,98981.38
2022-10-19T08:01:24.890Z,98983.59
2022-10-19T08:06:41.034Z,98984.34
2022-10-19T08:09:08.411Z,98983.13
2022-10-19T08:11:36.676Z,98987.53
2022-10-19T08:14:04.595Z,98976.81
2022-10-19T08:16:37.684Z,98980.47
2022-10-19T08:19:08.377Z,98967.34
2022-10-19T08:21:38.171Z,98968.31
2022-10-19T08:24:06.367Z,98970.00
2022-10-19T08:26:38.010Z,98965.63
2022-10-19T08:29:14.488Z,98968.81
2022-10-19T08:31:43.587Z,98965.44
2022-10-19T08:34:12.214Z,98969.78
2022-10-19T08:36:39.295Z,98967.84
2022-10-19T08:39:08.514Z,98970.31
2022-10-19T08:41:41.695Z,98971.28
2022-10-19T08:44:36.521Z,98976.41
2022-10-19T08:47:12.929Z,98991.50
2022-10-19T08:49:42.061Z,98995.88
2022-10-19T08:52:41.076Z,99007.84
2022-10-19T08:55:18.197Z,99008.09
2022-10-19T08:57:50.359Z,99008.56
2022-10-19T09:00:46.780Z,99023.97
2022-10-19T09:03:55.329Z,99018.34
2022-10-19T09:07:08.108Z,99027.84
2022-10-19T09:09:38.555Z,99043.44
2022-10-19T09:12:08.143Z,99034.41
2022-10-19T09:14:41.260Z,99048.03
2022-10-19T09:17:19.297Z,99051.41
2022-10-19T09:19:46.357Z,99051.41
2022-10-19T09:22:19.367Z,99061.69
2022-10-19T09:24:55.842Z,99066.31
2022-10-19T09:27:36.144Z,99061.47
2022-10-19T09:30:22.774Z,99066.31
2022-10-19T09:33:00.703Z,99066.84
2022-10-19T09:35:27.848Z,99058.09
2022-10-19T09:37:56.237Z,99063.22
2022-10-19T09:40:26.501Z,99063.94
2022-10-19T09:43:03.737Z,99067.84
2022-10-19T09:45:51.103Z,99070.53
2022-10-19T09:48:29.294Z,99075.66
2022-10-19T09:50:59.667Z,99069.56
2022-10-19T09:53:27.918Z,99071.75
2022-10-19T09:56:01.261Z,99071.50
2022-10-19T09:58:32.995Z,99062.50
2022-10-19T10:01:01.959Z,99059.56
2022-10-19T10:03:33.106Z,99059.84
2022-10-19T10:06:07.457Z,99052.75
2022-10-19T10:08:40.131Z,99063.28
2022-10-19T10:11:12.024Z,99059.13
2022-10-19T10:13:48.260Z,99053.75
2022-10-19T10:16:18.133Z,99051.06
2022-10-19T10:18:55.520Z,99054.50
2022-10-19T10:21:32.445Z,99052.28
2022-10-19T10:24:11.478Z,99054.72
2022-10-19T10:26:44.699Z,99055.94
2022-10-19T10:29:26.871Z,99058.88
2022-10-19T10:31:59.214Z,99054.72
2022-10-19T10:34:49.786Z,99067.16
2022-10-19T10:37:26.471Z,99066.44
2022-10-19T10:39:57.864Z,99071.31
2022-10-19T10:42:37.382Z,99061.56
2022-10-19T10:45:05.747Z,99061.31
2022-10-19T10:47:33.176Z,99054.72
2022-10-19T10:50:07.652Z,99054.50
2022-10-19T10:52:37.079Z,99062.28
2022-10-19T10:55:26.877Z,99051.31
2022-10-19T10:58:12.292Z,99047.41
2022-10-19T11:00:40.675Z,99047.88
2022-10-19T11:03:26.944Z,99050.78
2022-10-19T11:05:57.942Z,99047.88
2022-10-19T11:08:44.065Z,99053.72
2022-10-19T11:11:20.097Z,99055.44
2022-10-19T11:13:54.347Z,99050.56
2022-10-19T11:16:29.207Z,99046.63
2022-10-19T11:19:23.281Z,99053.97
2022-10-19T11:22:11.679Z,99053.97
2022-10-19T11:24:48.642Z,99054.25
2022-10-19T11:27:24.789Z,99058.13
2022-10-19T11:30:15.439Z,99050.09
2022-10-19T11:33:00.935Z,99050.81
2022-10-19T11:36:04.375Z,99059.34
2022-10-19T11:38:38.850Z,99059.34
2022-10-19T11:41:21.164Z,99054.22
2022-10-19T11:43:50.983Z,99052.25
2022-10-19T11:46:29.982Z,99047.38
2022-10-19T11:49:03.555Z,99054.19
2022-10-19T11:51:47.450Z,99056.66
2022-10-19T11:54:25.181Z,99047.66
2022-10-19T11:57:06.406Z,99049.59
2022-10-19T12:00:03.667Z,99035.19
2022-10-19T12:02:47.052Z,99040.81
2022-10-19T12:05:26.685Z,99034.97
2022-10-19T12:08:12.600Z,99023.25
2022-10-19T12:11:04.586Z,99020.09
2022-10-19T12:13:42.732Z,99020.06
2022-10-19T12:16:13.686Z,99004.16
2022-10-19T12:18:43.900Z,98999.56
2022-10-19T12:21:31.586Z,98995.91
2022-10-19T12:24:01.670Z,98998.34
2022-10-19T12:26:33.217Z,98994.22
2022-10-19T12:29:06.878Z,98987.41
2022-10-19T12:31:34.163Z,98982.25
2022-10-19T12:34:31.618Z,98972.72
2022-10-19T12:37:08.952Z,98969.53
2022-10-19T12:39:58.746Z,98961.94
2022-10-19T12:42:33.176Z,98957.25
2022-10-19T12:45:14.994Z,98943.84
2022-10-19T12:48:19.261Z,98930.63
2022-10-19T12:50:49.176Z,98920.13
2022-10-19T12:53:27.595Z,98918.63
2022-10-19T12:56:02.436Z,98906.63
2022-10-19T12:58:37.077Z,98903.72
2022-10-19T13:01:06.521Z,98904.97
2022-10-19T13:03:37.454Z,98889.53
2022-10-19T13:06:30.824Z,98889.22
2022-10-19T13:09:07.516Z,98879.59
2022-10-19T13:14:44.842Z,98871.56
2022-10-19T13:17:34.016Z,98875.28
2022-10-19T13:20:17.107Z,98884.22
2022-10-19T13:22:46.713Z,98880.00
2022-10-19T13:25:19.895Z,98883.25
2022-10-19T13:27:48.930Z,98874.88
2022-10-19T13:30:37.620Z,98880.38
2022-10-19T13:33:29.646Z,98876.81
2022-10-19T13:35:59.677Z,98872.94
2022-10-19T13:38:28.206Z,98872.31
2022-10-19T13:40:58.543Z,98867.38
2022-10-19T13:43:29.109Z,98871.03
2022-10-19T13:46:08.468Z,98861.91
2022-10-19T13:48:57.634Z,98863.25
2022-10-19T13:51:43.392Z,98855.28
2022-10-19T13:54:10.691Z,98859.69
2022-10-19T13:56:47.989Z,98858.94
2022-10-19T13:59:51.877Z,98853.03
2022-10-19T14:02:34.511Z,98848.19
2022-10-19T14:05:32.860Z,98843.50
2022-10-19T14:08:21.224Z,98828.91
2022-10-19T14:11:01.199Z,98820.66
2022-10-19T14:13:29.546Z,98818.50
2022-10-19T14:15:59.025Z,98814.44
2022-10-19T14:18:36.934Z,98807.91
2022-10-19T14:21:07.913Z,98818.75
2022-10-19T14:23:38.400Z,98802.22
2022-10-19T14:26:18.932Z,98811.28
2022-10-19T14:28:51.566Z,98808.53
2022-10-19T14:31:22.205Z,98807.19
2022-10-19T14:33:53.227Z,98804.84
2022-10-19T14:36:23.914Z,98799.66
2022-10-19T14:38:55.268Z,98801.59
2022-10-19T14:41:36.412Z,98795.78
2022-10-19T14:44:52.674Z,98792.16
2022-10-19T14:47:28.426Z,98791.22
2022-10-19T14:49:55.721Z,98781.84
2022-10-19T14:52:41.626Z,98775.25
2022-10-19T14:55:18.162Z,98775.66
2022-10-19T14:57:48.295Z,98770.41
2022-10-19T15:00:21.603Z,98767.63
2022-10-19T15:02:58.432Z,98772.47
2022-10-19T15:05:33.766Z,98769.09
2022-10-19T15:08:10.333Z,98772.25
2022-10-19T15:10:43.533Z,98767.63
2022-10-19T15:13:25.560Z,98776.47
2022-10-19T15:15:54.706Z,98773.31
2022-10-19T15:18:47.775Z,98771.09
2022-10-19T15:21:21.276Z,98768.41
2022-10-19T15:23:50.818Z,98774.31
2022-10-19T15:26:20.148Z,98762.75
2022-10-19T15:28:48.100Z,98767.94
2022-10-19T15:31:17.461Z,98766.69
2022-10-19T15:33:51.011Z,98767.94
2022-10-19T15:36:20.059Z,98763.81
2022-10-19T15:39:24.513Z,98749.78
2022-10-19T15:41:53.038Z,98754.00
2022-10-19T15:44:55.768Z,98758.16
2022-10-19T15:47:24.971Z,98745.72
2022-10-19T15:50:01.499Z,98748.97
2022-10-19T15:52:37.847Z,98747.97
2022-10-19T15:55:07.348Z,98755.53
2022-10-19T15:57:38.651Z,98759.28
2022-10-19T16:00:17.565Z,98748.03
2022-10-19T16:02:45.275Z,98754.25
2022-10-19T16:05:12.669Z,98760.31
2022-10-19T16:07:41.546Z,98752.56
2022-10-19T16:10:16.779Z,98744.75
2022-10-19T16:12:44.467Z,98750.25
2022-10-19T16:15:23.414Z,98756.34
2022-10-19T16:17:53.192Z,98746.06
2022-10-19T16:20:20.740Z,98741.97
2022-10-19T16:22:48.928Z,98737.91
2022-10-19T16:25:16.545Z,98743.09
2022-10-19T16:27:44.009Z,98735.84
2022-10-19T16:30:11.878Z,98732.75
2022-10-19T16:35:12.785Z,98732.59
2022-10-19T16:37:40.058Z,98734.44
2022-10-19T16:40:08.026Z,98724.84
2022-10-19T16:42:35.790Z,98728.06
2022-10-19T16:45:03.546Z,98725.16
2022-10-19T16:47:30.821Z,98718.31
2022-10-19T16:50:02.584Z,98724.47
2022-10-19T16:52:32.426Z,98726.97
2022-10-19T16:55:00.866Z,98722.97
2022-10-19T16:57:28.379Z,98724.97
2022-10-19T16:59:55.700Z,98724.28
2022-10-19T17:02:24.821Z,98718.06
2022-10-19T17:04:52.226Z,98727.31
2022-10-19T17:07:19.760Z,98722.66
2022-10-19T17:09:49.803Z,98714.22
2022-10-19T17:12:19.922Z,98716.59
2022-10-19T17:14:49.527Z,98708.84
2022-10-19T17:17:17.947Z,98717.28
2022-10-19T17:19:47.083Z,98714.53
2022-10-19T17:22:14.476Z,98710.53
2022-10-19T17:24:42.197Z,98705.22
2022-10-19T17:27:12.496Z,98705.03
2022-10-19T17:29:39.898Z,98707.78
2022-10-19T17:32:07.482Z,98711.56
2022-10-19T17:34:34.802Z,98713.38
2022-10-19T17:39:30.270Z,98707.16
2022-10-19T17:42:02.357Z,98709.91
2022-10-19T17:44:31.536Z,98705.09
2022-10-19T17:47:00.024Z,98707.09
2022-10-19T17:49:29.541Z,98707.34
2022-10-19T17:51:57.011Z,98711.28
2022-10-19T17:54:24.515Z,98703.72
2022-10-19T17:56:51.943Z,98700.81
2022-10-19T17:59:30.276Z,98689.81
2022-10-19T18:02:04.025Z,98688.38
2022-10-19T18:04:33.182Z,98686.72
2022-10-19T18:07:00.669Z,98688.69
2022-10-19T18:09:28.097Z,98681.91
2022-10-19T18:11:55.505Z,98681.25
2022-10-19T18:14:22.994Z,98673.22
2022-10-19T18:16:50.981Z,98675.69
2022-10-19T18:19:18.670Z,98677.16
2022-10-19T18:21:47.941Z,98680.78
2022-10-19T18:24:20.517Z,98683.72
2022-10-19T18:26:50.243Z,98685.22
2022-10-19T18:29:22.127Z,98684.50
2022-10-19T18:31:52.173Z,98685.50
2022-10-19T18:34:28.633Z,98683.81
2022-10-19T18:36:56.416Z,98683.59
2022-10-19T18:39:24.061Z,98692.41
2022-10-19T18:41:57.534Z,98700.25
2022-10-19T18:44:27.855Z,98696.16
2022-10-19T18:46:57.539Z,98700.78
2022-10-19T18:49:25.337Z,98690.03
2022-10-19T18:51:56.845Z,98696.38
2022-10-19T18:54:26.821Z,98694.41
2022-10-19T18:56:59.280Z,98687.31
2022-10-19T18:59:29.569Z,98687.03
2022-10-19T19:01:57.013Z,98683.16
2022-10-19T19:04:24.623Z,98692.66
2022-10-19T19:09:35.629Z,98676.31
2022-10-19T19:12:03.070Z,98677.03
2022-10-19T19:14:30.488Z,98672.41
2022-10-19T19:17:00.853Z,98679.72
2022-10-19T19:19:34.243Z,98685.31
2022-10-19T19:22:07.868Z,98681.66
2022-10-19T19:24:36.467Z,98682.13
2022-10-19T19:27:03.973Z,98677.50
2022-10-19T19:29:31.470Z,98683.59
2022-10-19T19:31:59.217Z,98695.78
2022-10-19T19:34:27.351Z,98699.97
2022-10-19T19:36:59.169Z,98701.22
2022-10-19T19:39:26.670Z,98702.94
2022-10-19T19:41:55.916Z,98706.88
2022-10-19T19:44:26.949Z,98700.03
2022-10-19T19:46:59.415Z,98703.22
2022-10-19T19:49:29.830Z,98703.47
2022-10-19T19:51:57.854Z,98705.44
2022-10-19T19:54:25.827Z,98698.84
2022-10-19T19:56:55.752Z,98699.56
2022-10-19T19:59:34.492Z,98699.81
2022-10-19T20:02:03.014Z,98694.47
2022-10-19T20:04:30.632Z,98694.47
2022-10-19T20:06:58.242Z,98688.38
2022-10-19T20:09:30.142Z,98681.03
2022-10-19T20:12:00.097Z,98683.50
2022-10-19T20:14:28.030Z,98682.06
2022-10-19T20:16:55.560Z,98682.06
2022-10-19T20:19:23.619Z,98682.28
2022-10-19T20:21:53.239Z,98689.09
2022-10-19T20:27:01.476Z,98697.69
2022-10-19T20:29:29.103Z,98694.53
2022-10-19T20:31:56.555Z,98697.25
2022-10-19T20:34:27.112Z,98701.66
2022-10-19T20:36:57.345Z,98702.88
2022-10-19T20:39:24.788Z,98697.50
2022-10-19T20:41:52.191Z,98699.94
2022-10-19T20:44:23.346Z,98697.06
2022-10-19T20:46:55.492Z,98717.53
2022-10-19T20:49:23.273Z,98710.94
2022-10-19T20:51:54.584Z,98705.84
2022-10-19T20:54:24.308Z,98703.44
2022-10-19T20:56:55.417Z,98700.25
2022-10-19T20:59:27.623Z,98711.25
2022-10-19T21:01:58.708Z,98715.34
2022-10-19T21:04:29.055Z,98715.13
2022-10-19T21:09:40.199Z,98724.59
2022-10-19T21:12:07.599Z,98722.88
2022-10-19T21:14:35.069Z,98721.41
2022-10-19T21:17:05.633Z,98723.88
2022-10-19T21:19:33.014Z,98718.50
2022-10-19T21:22:02.850Z,98714.63
2022-10-19T21:24:35.315Z,98715.81
2022-10-19T21:27:10.284Z,98718.50
2022-10-19T21:29:37.891Z,98716.03
2022-10-19T21:32:07.422Z,98714.63
2022-10-19T21:34:36.873Z,98715.13
2022-10-19T21:37:04.802Z,98699.03
2022-10-19T21:39:32.203Z,98708.75
2022-10-19T21:41:59.459Z,98700.94
2022-10-19T21:44:29.086Z,98701.94
2022-10-19T21:46:56.506Z,98693.69
2022-10-19T21:49:23.802Z,98687.34
2022-10-19T21:51:54.457Z,98690.25
2022-10-19T21:54:25.379Z,98684.91
2022-10-19T21:56:53.634Z,98685.66
2022-10-19T21:59:20.978Z,98678.78
2022-10-19T22:01:48.558Z,98674.63
2022-10-19T22:04:20.832Z,98680.00
2022-10-19T22:06:48.215Z,98691.75
2022-10-19T22:09:21.457Z,98685.66
2022-10-19T22:11:49.114Z,98685.19
2022-10-19T22:14:17.257Z,98685.19
2022-10-19T22:16:44.929Z,98680.06
2022-10-19T22:19:12.383Z,98690.78
2022-10-19T22:21:40.069Z,98694.69
2022-10-19T22:24:11.394Z,98694.94
2022-10-19T22:26:45.409Z,98691.28
2022-10-19T22:29:12.619Z,98688.59
2022-10-19T22:31:40.163Z,98689.81
2022-10-19T22:34:10.410Z,98693.97
2022-10-19T22:36:38.222Z,98694.41
2022-10-19T22:39:05.883Z,98692.00
2022-10-19T22:42:29.475Z,98691.03
2022-10-19T22:44:56.559Z,98689.81
2022-10-19T22:47:23.898Z,98684.22
2022-10-19T22:49:51.102Z,98695.22
2022-10-19T22:52:18.171Z,98701.06
2022-10-19T22:54:45.249Z,98703.50
2022-10-19T22:57:12.667Z,98695.66
2022-10-19T22:59:39.767Z,98694.22
2022-10-19T23:02:06.969Z,98700.56
2022-10-19T23:04:34.283Z,98701.56
2022-10-19T23:07:01.427Z,98704.75
2022-10-19T23:09:28.603Z,98705.47
2022-10-19T23:11:55.731Z,98702.53
2022-10-19T23:14:22.894Z,98704.00
2022-10-19T23:16:50.037Z,98698.66
2022-10-19T23:19:17.187Z,98698.91
2022-10-19T23:21:44.320Z,98696.47
2022-10-19T23:24:11.418Z,98700.13
2022-10-19T23:26:38.576Z,98697.00
2022-10-19T23:29:06.137Z,98706.72
2022-10-19T23:31:34.072Z,98704.31
2022-10-19T23:34:01.154Z,98705.56
2022-10-19T23:36:29.640Z,98693.88
2022-10-19T23:38:58.668Z,98692.16
2022-10-19T23:41:26.017Z,98696.03
2022-10-19T23:43:53.341Z,98693.38
2022-10-19T23:46:20.570Z,98698.97
2022-10-19T23:48:47.829Z,98698.97
2022-10-19T23:51:17.845Z,98701.16
2022-10-19T23:53:46.455Z,98702.16
2022-10-19T23:56:13.487Z,98695.31
2022-10-19T23:58:41.117Z,98701.41
